EGXE - Leeming
Distance from station: E 5mi, 14km
Updated: 10/22/2017 12:50pm
Clear
Clear
 Wind from WNW
Wind: WNW 14 mph , 22 km/h
Temperature: 48°F , 9°C
Wind Chill: 42°F , 6°C
Dew Point: 37°F , 3°C
Humidity: 66%
Barometer: 29.88 inHg , 1012 hPa
Clouds: Clear
Visibility: 6 miles , 10 km
2017/10/22 19:50 EGXE 221950Z AUTO 29012KT 9999 NCD 09/03 Q1012